sensor_id;sensor_type;location;lat;lon;timestamp;pressure;altitude;pressure_sealevel;temperature;humidity
23619;BME280;18207;32.078;34.818;2023-05-02T00:00:14;101101.56;;;25.65;38.67
23619;BME280;18207;32.078;34.818;2023-05-02T00:02:45;101094.31;;;25.64;38.64
23619;BME280;18207;32.078;34.818;2023-05-02T00:05:15;101085.88;;;25.64;38.39
23619;BME280;18207;32.078;34.818;2023-05-02T00:07:46;101087.84;;;25.64;38.66
23619;BME280;18207;32.078;34.818;2023-05-02T00:10:18;101083.41;;;25.63;38.71
23619;BME280;18207;32.078;34.818;2023-05-02T00:12:49;101089.03;;;25.63;38.72
23619;BME280;18207;32.078;34.818;2023-05-02T00:15:20;101080.59;;;25.63;38.78
23619;BME280;18207;32.078;34.818;2023-05-02T00:17:50;101081.75;;;25.62;38.63
23619;BME280;18207;32.078;34.818;2023-05-02T00:20:20;101078.13;;;25.61;38.91
23619;BME280;18207;32.078;34.818;2023-05-02T00:22:51;101085.31;;;25.59;38.82
23619;BME280;18207;32.078;34.818;2023-05-02T00:25:22;101085.31;;;25.59;38.85
23619;BME280;18207;32.078;34.818;2023-05-02T00:27:52;101082.84;;;25.57;39.06
23619;BME280;18207;32.078;34.818;2023-05-02T00:30:22;101085.66;;;25.57;38.85
23619;BME280;18207;32.078;34.818;2023-05-02T00:32:52;101091.28;;;25.57;38.83
23619;BME280;18207;32.078;34.818;2023-05-02T00:35:22;101086.03;;;25.56;39.13
23619;BME280;18207;32.078;34.818;2023-05-02T00:37:52;101079.56;;;25.55;38.83
23619;BME280;18207;32.078;34.818;2023-05-02T00:40:24;101076.31;;;25.53;38.53
23619;BME280;18207;32.078;34.818;2023-05-02T00:42:55;101074.22;;;25.50;38.55
23619;BME280;18207;32.078;34.818;2023-05-02T00:45:26;101075.75;;;25.48;38.67
23619;BME280;18207;32.078;34.818;2023-05-02T00:47:56;101076.47;;;25.45;38.96
23619;BME280;18207;32.078;34.818;2023-05-02T00:50:28;101079.66;;;25.43;38.85
23619;BME280;18207;32.078;34.818;2023-05-02T00:53:00;101086.47;;;25.42;38.75
23619;BME280;18207;32.078;34.818;2023-05-02T00:55:34;101084.38;;;25.39;38.74
23619;BME280;18207;32.078;34.818;2023-05-02T00:58:09;101089.53;;;25.37;38.66
23619;BME280;18207;32.078;34.818;2023-05-02T01:00:58;101084.25;;;25.36;38.81
23619;BME280;18207;32.078;34.818;2023-05-02T01:03:41;101081.00;;;25.34;38.71
23619;BME280;18207;32.078;34.818;2023-05-02T01:06:41;101086.53;;;25.30;38.81
23619;BME280;18207;32.078;34.818;2023-05-02T01:09:32;101087.22;;;25.27;38.82
23619;BME280;18207;32.078;34.818;2023-05-02T01:12:19;101094.41;;;25.25;38.83
23619;BME280;18207;32.078;34.818;2023-05-02T01:14:54;101086.66;;;25.22;38.68
23619;BME280;18207;32.078;34.818;2023-05-02T01:17:29;101092.66;;;25.20;38.82
23619;BME280;18207;32.078;34.818;2023-05-02T01:20:07;101088.59;;;25.18;38.72
23619;BME280;18207;32.078;34.818;2023-05-02T01:22:40;101096.56;;;25.16;38.85
23619;BME280;18207;32.078;34.818;2023-05-02T01:25:28;101093.28;;;25.14;38.76
23619;BME280;18207;32.078;34.818;2023-05-02T01:28:16;101094.81;;;25.11;38.80
23619;BME280;18207;32.078;34.818;2023-05-02T01:30:54;101089.88;;;25.08;38.69
23619;BME280;18207;32.078;34.818;2023-05-02T01:33:26;101090.22;;;25.07;38.83
23619;BME280;18207;32.078;34.818;2023-05-02T01:35:58;101084.13;;;25.05;38.78
23619;BME280;18207;32.078;34.818;2023-05-02T01:38:32;101096.56;;;25.04;38.87
23619;BME280;18207;32.078;34.818;2023-05-02T01:41:04;101094.50;;;25.01;38.83
23619;BME280;18207;32.078;34.818;2023-05-02T01:43:38;101094.50;;;25.01;38.80
23619;BME280;18207;32.078;34.818;2023-05-02T01:46:13;101095.66;;;25.00;38.62
23619;BME280;18207;32.078;34.818;2023-05-02T01:48:46;101095.66;;;25.00;38.85
23619;BME280;18207;32.078;34.818;2023-05-02T01:51:20;101093.19;;;24.99;38.83
23619;BME280;18207;32.078;34.818;2023-05-02T01:53:53;101099.97;;;24.98;39.16
23619;BME280;18207;32.078;34.818;2023-05-02T01:56:24;101102.78;;;24.98;39.06
23619;BME280;18207;32.078;34.818;2023-05-02T01:58:56;101109.59;;;24.97;38.95
23619;BME280;18207;32.078;34.818;2023-05-02T02:01:30;101115.22;;;24.97;38.96
23619;BME280;18207;32.078;34.818;2023-05-02T02:04:03;101121.22;;;24.95;38.75
23619;BME280;18207;32.078;34.818;2023-05-02T02:06:36;101118.75;;;24.94;39.09
23619;BME280;18207;32.078;34.818;2023-05-02T02:09:06;101116.28;;;24.92;38.78
23619;BME280;18207;32.078;34.818;2023-05-02T02:11:49;101111.03;;;24.91;38.72
23619;BME280;18207;32.078;34.818;2023-05-02T02:14:25;101113.38;;;24.89;38.84
23619;BME280;18207;32.078;34.818;2023-05-02T02:17:04;101102.03;;;24.85;39.01
23619;BME280;18207;32.078;34.818;2023-05-02T02:19:36;101110.81;;;24.84;38.94
23619;BME280;18207;32.078;34.818;2023-05-02T02:22:12;101104.72;;;24.82;38.85
23619;BME280;18207;32.078;34.818;2023-05-02T02:24:45;101116.34;;;24.80;39.02
23619;BME280;18207;32.078;34.818;2023-05-02T02:27:19;101114.22;;;24.77;38.72
23619;BME280;18207;32.078;34.818;2023-05-02T02:29:49;101125.84;;;24.76;39.17
23619;BME280;18207;32.078;34.818;2023-05-02T02:32:21;101114.94;;;24.74;38.99
23619;BME280;18207;32.078;34.818;2023-05-02T02:34:51;101112.84;;;24.71;39.12
23619;BME280;18207;32.078;34.818;2023-05-02T02:37:28;101120.81;;;24.69;38.87
23619;BME280;18207;32.078;34.818;2023-05-02T02:40:08;101111.44;;;24.65;38.83
23619;BME280;18207;32.078;34.818;2023-05-02T02:42:51;101108.53;;;24.62;39.08
23619;BME280;18207;32.078;34.818;2023-05-02T02:45:34;101114.84;;;24.59;38.82
23619;BME280;18207;32.078;34.818;2023-05-02T02:48:18;101113.56;;;24.56;38.83
23619;BME280;18207;32.078;34.818;2023-05-02T02:51:08;101120.34;;;24.55;39.54
23619;BME280;18207;32.078;34.818;2023-05-02T02:53:53;101119.56;;;24.55;38.96
23619;BME280;18207;32.078;34.818;2023-05-02T02:56:36;101128.44;;;24.57;39.28
23619;BME280;18207;32.078;34.818;2023-05-02T02:59:17;101127.63;;;24.56;39.48
23619;BME280;18207;32.078;34.818;2023-05-02T03:02:04;101141.31;;;24.58;39.38
23619;BME280;18207;32.078;34.818;2023-05-02T03:04:40;101145.75;;;24.59;39.52
23619;BME280;18207;32.078;34.818;2023-05-02T03:07:12;101144.94;;;24.58;39.46
23619;BME280;18207;32.078;34.818;2023-05-02T03:09:45;101145.41;;;24.60;39.61
23619;BME280;18207;32.078;34.818;2023-05-02T03:12:16;101142.63;;;24.60;39.51
23619;BME280;18207;32.078;34.818;2023-05-02T03:14:46;101140.25;;;24.62;39.54
23619;BME280;18207;32.078;34.818;2023-05-02T03:17:16;101136.25;;;24.63;39.45
23619;BME280;18207;32.078;34.818;2023-05-02T03:19:49;101145.16;;;24.65;39.45
23619;BME280;18207;32.078;34.818;2023-05-02T03:22:19;101144.00;;;24.66;39.47
23619;BME280;18207;32.078;34.818;2023-05-02T03:24:49;101151.25;;;24.67;39.64
23619;BME280;18207;32.078;34.818;2023-05-02T03:27:19;101151.72;;;24.69;39.52
23619;BME280;18207;32.078;34.818;2023-05-02T03:29:49;101150.56;;;24.70;39.83
23619;BME280;18207;32.078;34.818;2023-05-02T03:32:20;101153.00;;;24.72;39.85
23619;BME280;18207;32.078;34.818;2023-05-02T03:34:51;101148.19;;;24.72;39.53
23619;BME280;18207;32.078;34.818;2023-05-02T03:37:25;101150.66;;;24.74;39.61
23619;BME280;18207;32.078;34.818;2023-05-02T03:39:56;101154.66;;;24.73;39.81
23619;BME280;18207;32.078;34.818;2023-05-02T03:42:27;101160.63;;;24.71;39.64
23619;BME280;18207;32.078;34.818;2023-05-02T03:44:57;101152.06;;;24.68;39.89
23619;BME280;18207;32.078;34.818;2023-05-02T03:47:27;101154.06;;;24.67;39.58
23619;BME280;18207;32.078;34.818;2023-05-02T03:50:00;101153.59;;;24.65;39.48
23619;BME280;18207;32.078;34.818;2023-05-02T03:52:30;101161.22;;;24.65;39.33
23619;BME280;18207;32.078;34.818;2023-05-02T03:55:02;101155.13;;;24.63;39.71
23619;BME280;18207;32.078;34.818;2023-05-02T03:57:33;101155.50;;;24.61;39.54
23619;BME280;18207;32.078;34.818;2023-05-02T04:00:03;101157.47;;;24.61;39.76
23619;BME280;18207;32.078;34.818;2023-05-02T04:02:34;101166.25;;;24.59;39.80
23619;BME280;18207;32.078;34.818;2023-05-02T04:05:08;101162.63;;;24.59;39.90
23619;BME280;18207;32.078;34.818;2023-05-02T04:07:38;101169.78;;;24.56;39.99
23619;BME280;18207;32.078;34.818;2023-05-02T04:10:09;101166.50;;;24.54;39.74
23619;BME280;18207;32.078;34.818;2023-05-02T04:12:43;101175.28;;;24.53;39.77
23619;BME280;18207;32.078;34.818;2023-05-02T04:15:14;101173.63;;;24.52;40.28
23619;BME280;18207;32.078;34.818;2023-05-02T04:17:44;101168.50;;;24.54;39.96
23619;BME280;18207;32.078;34.818;2023-05-02T04:20:17;101167.31;;;24.55;40.28
23619;BME280;18207;32.078;34.818;2023-05-02T04:22:47;101171.41;;;24.57;40.00
23619;BME280;18207;32.078;34.818;2023-05-02T04:25:18;101167.91;;;24.60;40.15
23619;BME280;18207;32.078;34.818;2023-05-02T04:27:48;101177.63;;;24.63;40.44
23619;BME280;18207;32.078;34.818;2023-05-02T04:30:18;101176.91;;;24.66;40.46
23619;BME280;18207;32.078;34.818;2023-05-02T04:32:49;101172.94;;;24.67;39.97
23619;BME280;18207;32.078;34.818;2023-05-02T04:35:22;101183.81;;;24.68;40.22
23619;BME280;18207;32.078;34.818;2023-05-02T04:37:53;101181.47;;;24.70;40.17
23619;BME280;18207;32.078;34.818;2023-05-02T04:40:24;101181.94;;;24.72;40.24
23619;BME280;18207;32.078;34.818;2023-05-02T04:42:54;101189.19;;;24.73;40.41
23619;BME280;18207;32.078;34.818;2023-05-02T04:45:25;101181.69;;;24.77;40.28
23619;BME280;18207;32.078;34.818;2023-05-02T04:47:55;101186.97;;;24.79;40.61
23619;BME280;18207;32.078;34.818;2023-05-02T04:50:27;101184.63;;;24.81;40.47
23619;BME280;18207;32.078;34.818;2023-05-02T04:52:59;101189.53;;;24.84;40.17
23619;BME280;18207;32.078;34.818;2023-05-02T04:55:29;101191.28;;;24.88;40.64
23619;BME280;18207;32.078;34.818;2023-05-02T04:57:59;101188.13;;;24.90;40.66
23619;BME280;18207;32.078;34.818;2023-05-02T05:00:31;101193.84;;;24.93;40.45
23619;BME280;18207;32.078;34.818;2023-05-02T05:03:01;101200.41;;;24.97;40.54
23619;BME280;18207;32.078;34.818;2023-05-02T05:05:33;101194.53;;;25.02;40.47
23619;BME280;18207;32.078;34.818;2023-05-02T05:08:04;101194.66;;;25.06;40.72
23619;BME280;18207;32.078;34.818;2023-05-02T05:10:35;101187.63;;;25.11;40.91
23619;BME280;18207;32.078;34.818;2023-05-02T05:13:05;101196.66;;;25.17;40.69
23619;BME280;18207;32.078;34.818;2023-05-02T05:15:36;101191.59;;;25.22;40.98
23619;BME280;18207;32.078;34.818;2023-05-02T05:18:06;101200.25;;;25.29;41.19
23619;BME280;18207;32.078;34.818;2023-05-02T05:20:38;101189.56;;;25.35;40.98
23619;BME280;18207;32.078;34.818;2023-05-02T05:23:08;101195.75;;;25.40;41.04
23619;BME280;18207;32.078;34.818;2023-05-02T05:25:38;101199.94;;;25.46;41.14
23619;BME280;18207;32.078;34.818;2023-05-02T05:28:12;101200.50;;;25.52;40.91
23619;BME280;18207;32.078;34.818;2023-05-02T05:30:42;101202.72;;;25.58;40.87
23619;BME280;18207;32.078;34.818;2023-05-02T05:33:12;101199.66;;;25.63;41.06
23619;BME280;18207;32.078;34.818;2023-05-02T05:35:44;101202.66;;;25.70;40.87
23619;BME280;18207;32.078;34.818;2023-05-02T05:38:14;101205.19;;;25.75;41.24
23619;BME280;18207;32.078;34.818;2023-05-02T05:40:48;101216.72;;;25.82;41.06
23619;BME280;18207;32.078;34.818;2023-05-02T05:43:18;101204.00;;;25.88;41.24
23619;BME280;18207;32.078;34.818;2023-05-02T05:45:51;101197.75;;;25.95;41.08
23619;BME280;18207;32.078;34.818;2023-05-02T05:48:22;101200.28;;;25.99;40.85
23619;BME280;18207;32.078;34.818;2023-05-02T05:50:54;101197.22;;;26.04;41.21
23619;BME280;18207;32.078;34.818;2023-05-02T05:53:24;101189.31;;;26.10;41.11
23619;BME280;18207;32.078;34.818;2023-05-02T05:55:55;101201.59;;;26.17;41.18
23619;BME280;18207;32.078;34.818;2023-05-02T05:58:25;101195.31;;;26.24;41.25
23619;BME280;18207;32.078;34.818;2023-05-02T06:00:55;101202.69;;;26.28;41.19
23619;BME280;18207;32.078;34.818;2023-05-02T06:03:26;101198.41;;;26.34;41.16
23619;BME280;18207;32.078;34.818;2023-05-02T06:05:58;101193.34;;;26.40;41.31
23619;BME280;18207;32.078;34.818;2023-05-02T06:08:28;101200.34;;;26.46;41.36
23619;BME280;18207;32.078;34.818;2023-05-02T06:10:58;101205.34;;;26.52;41.30
23619;BME280;18207;32.078;34.818;2023-05-02T06:13:28;101205.09;;;26.57;41.43
23619;BME280;18207;32.078;34.818;2023-05-02T06:16:00;101202.81;;;26.63;41.18
23619;BME280;18207;32.078;34.818;2023-05-02T06:18:31;101212.16;;;26.67;41.19
23619;BME280;18207;32.078;34.818;2023-05-02T06:21:18;101207.06;;;26.72;41.35
23619;BME280;18207;32.078;34.818;2023-05-02T06:23:48;101203.50;;;26.75;41.12
23619;BME280;18207;32.078;34.818;2023-05-02T06:26:18;101216.50;;;26.80;41.30
23619;BME280;18207;32.078;34.818;2023-05-02T06:28:49;101203.66;;;26.82;41.23
23619;BME280;18207;32.078;34.818;2023-05-02T06:31:19;101209.03;;;26.87;41.13
23619;BME280;18207;32.078;34.818;2023-05-02T06:33:49;101210.75;;;26.91;41.17
23619;BME280;18207;32.078;34.818;2023-05-02T06:36:22;101212.47;;;26.96;41.07
23619;BME280;18207;32.078;34.818;2023-05-02T06:38:52;101205.28;;;26.98;41.23
23619;BME280;18207;32.078;34.818;2023-05-02T06:41:22;101205.38;;;27.02;41.22
23619;BME280;18207;32.078;34.818;2023-05-02T06:43:52;101210.72;;;27.07;41.16
23619;BME280;18207;32.078;34.818;2023-05-02T06:46:22;101209.66;;;27.11;41.09
23619;BME280;18207;32.078;34.818;2023-05-02T06:48:53;101208.53;;;27.16;41.16
23619;BME280;18207;32.078;34.818;2023-05-02T06:51:25;101204.63;;;27.20;41.16
23619;BME280;18207;32.078;34.818;2023-05-02T06:53:55;101200.69;;;27.25;41.14
23619;BME280;18207;32.078;34.818;2023-05-02T06:56:25;101199.56;;;27.29;41.00
23619;BME280;18207;32.078;34.818;2023-05-02T06:58:56;101202.09;;;27.34;41.11
23619;BME280;18207;32.078;34.818;2023-05-02T07:01:27;101192.50;;;27.39;41.14
23619;BME280;18207;32.078;34.818;2023-05-02T07:03:56;101195.84;;;27.44;41.01
23619;BME280;18207;32.078;34.818;2023-05-02T07:06:29;101192.34;;;27.51;41.04
23619;BME280;18207;32.078;34.818;2023-05-02T07:09:00;101193.25;;;27.55;41.06
23619;BME280;18207;32.078;34.818;2023-05-02T07:11:30;101198.59;;;27.60;41.17
23619;BME280;18207;32.078;34.818;2023-05-02T07:14:00;101196.31;;;27.65;40.98
23619;BME280;18207;32.078;34.818;2023-05-02T07:16:31;101193.22;;;27.70;41.08
23619;BME280;18207;32.078;34.818;2023-05-02T07:19:02;101196.91;;;27.74;40.97
23619;BME280;18207;32.078;34.818;2023-05-02T07:21:35;101210.34;;;27.80;41.02
23619;BME280;18207;32.078;34.818;2023-05-02T07:24:05;101202.78;;;27.84;41.02
23619;BME280;18207;32.078;34.818;2023-05-02T07:26:35;101195.16;;;27.88;40.92
23619;BME280;18207;32.078;34.818;2023-05-02T07:29:06;101201.72;;;27.92;40.96
23619;BME280;18207;32.078;34.818;2023-05-02T07:31:36;101205.06;;;27.98;41.04
23619;BME280;18207;32.078;34.818;2023-05-02T07:34:06;101206.75;;;28.02;40.92
23619;BME280;18207;32.078;34.818;2023-05-02T07:36:38;101212.09;;;28.07;40.85
23619;BME280;18207;32.078;34.818;2023-05-02T07:39:08;101196.78;;;28.08;41.08
23619;BME280;18207;32.078;34.818;2023-05-02T07:41:39;101201.28;;;28.13;40.87
23619;BME280;18207;32.078;34.818;2023-05-02T07:44:09;101192.06;;;28.16;40.79
23619;BME280;18207;32.078;34.818;2023-05-02T07:46:40;101185.66;;;28.19;40.81
23619;BME280;18207;32.078;34.818;2023-05-02T07:49:10;101189.75;;;28.21;40.79
23619;BME280;18207;32.078;34.818;2023-05-02T07:51:43;101187.00;;;28.25;40.92
23619;BME280;18207;32.078;34.818;2023-05-02T07:54:17;101188.25;;;28.27;40.86
23619;BME280;18207;32.078;34.818;2023-05-02T07:56:48;101184.69;;;28.30;40.78
23619;BME280;18207;32.078;34.818;2023-05-02T07:59:18;101178.28;;;28.33;40.91
23619;BME280;18207;32.078;34.818;2023-05-02T08:01:47;101186.00;;;28.36;40.73
23619;BME280;18207;32.078;34.818;2023-05-02T08:04:17;101178.41;;;28.40;40.78
23619;BME280;18207;32.078;34.818;2023-05-02T08:06:49;101180.47;;;28.43;40.87
23619;BME280;18207;32.078;34.818;2023-05-02T08:09:19;101171.59;;;28.45;40.79
23619;BME280;18207;32.078;34.818;2023-05-02T08:11:49;101176.50;;;28.48;40.84
23619;BME280;18207;32.078;34.818;2023-05-02T08:14:20;101172.09;;;28.50;40.83
23619;BME280;18207;32.078;34.818;2023-05-02T08:16:50;101176.19;;;28.53;40.54
23619;BME280;18207;32.078;34.818;2023-05-02T08:19:20;101170.97;;;28.55;40.58
23619;BME280;18207;32.078;34.818;2023-05-02T08:21:53;101172.22;;;28.57;40.92
23619;BME280;18207;32.078;34.818;2023-05-02T08:24:23;101177.50;;;28.59;40.44
23619;BME280;18207;32.078;34.818;2023-05-02T08:26:53;101175.09;;;28.61;40.25
23619;BME280;18207;32.078;34.818;2023-05-02T08:29:23;101174.72;;;28.62;40.48
23619;BME280;18207;32.078;34.818;2023-05-02T08:31:54;101168.69;;;28.63;40.42
23619;BME280;18207;32.078;34.818;2023-05-02T08:34:23;101164.25;;;28.66;40.40
23619;BME280;18207;32.078;34.818;2023-05-02T08:36:56;101164.72;;;28.68;40.36
23619;BME280;18207;32.078;34.818;2023-05-02T08:39:26;101170.41;;;28.71;40.83
23619;BME280;18207;32.078;34.818;2023-05-02T08:41:56;101176.53;;;28.73;40.23
23619;BME280;18207;32.078;34.818;2023-05-02T08:44:26;101177.75;;;28.76;40.43
23619;BME280;18207;32.078;34.818;2023-05-02T08:46:59;101163.66;;;28.79;40.47
23619;BME280;18207;32.078;34.818;2023-05-02T08:49:31;101162.13;;;28.82;40.53
23619;BME280;18207;32.078;34.818;2023-05-02T08:52:06;101160.56;;;28.84;40.14
23619;BME280;18207;32.078;34.818;2023-05-02T08:54:39;101159.34;;;28.85;40.10
23619;BME280;18207;32.078;34.818;2023-05-02T08:57:09;101159.81;;;28.87;39.87
23619;BME280;18207;32.078;34.818;2023-05-02T08:59:41;101158.22;;;28.90;40.50
23619;BME280;18207;32.078;34.818;2023-05-02T09:02:22;101154.63;;;28.93;39.91
23619;BME280;18207;32.078;34.818;2023-05-02T09:04:59;101146.53;;;28.95;40.27
23619;BME280;18207;32.078;34.818;2023-05-02T09:07:44;101150.66;;;28.97;39.76
23619;BME280;18207;32.078;34.818;2023-05-02T09:10:15;101144.59;;;28.99;39.68
23619;BME280;18207;32.078;34.818;2023-05-02T09:12:45;101149.50;;;29.02;39.93
23619;BME280;18207;32.078;34.818;2023-05-02T09:15:16;101150.75;;;29.04;40.01
23619;BME280;18207;32.078;34.818;2023-05-02T09:17:48;101153.16;;;29.06;39.84
23619;BME280;18207;32.078;34.818;2023-05-02T09:20:18;101140.66;;;29.07;39.89
23619;BME280;18207;32.078;34.818;2023-05-02T09:22:51;101147.16;;;29.07;39.99
23619;BME280;18207;32.078;34.818;2023-05-02T09:25:22;101143.09;;;29.08;39.58
23619;BME280;18207;32.078;34.818;2023-05-02T09:27:54;101143.53;;;29.10;39.78
23619;BME280;18207;32.078;34.818;2023-05-02T09:30:25;101152.84;;;29.11;39.62
23619;BME280;18207;32.078;34.818;2023-05-02T09:32:55;101154.84;;;29.10;39.65
23619;BME280;18207;32.078;34.818;2023-05-02T09:35:26;101146.34;;;29.10;39.52
23619;BME280;18207;32.078;34.818;2023-05-02T09:37:58;101148.00;;;29.11;39.31
23619;BME280;18207;32.078;34.818;2023-05-02T09:40:28;101149.63;;;29.12;39.69
23619;BME280;18207;32.078;34.818;2023-05-02T09:43:13;101152.06;;;29.14;39.71
23619;BME280;18207;32.078;34.818;2023-05-02T09:45:56;101156.94;;;29.13;39.68
23619;BME280;18207;32.078;34.818;2023-05-02T09:48:29;101154.09;;;29.13;39.50
23619;BME280;18207;32.078;34.818;2023-05-02T09:50:59;101161.38;;;29.14;39.58
23619;BME280;18207;32.078;34.818;2023-05-02T09:53:43;101159.34;;;29.15;39.60
23619;BME280;18207;32.078;34.818;2023-05-02T09:56:14;101158.16;;;29.16;39.43
23619;BME280;18207;32.078;34.818;2023-05-02T09:58:45;101154.53;;;29.15;39.60
23619;BME280;18207;32.078;34.818;2023-05-02T10:01:17;101151.31;;;29.17;39.26
23619;BME280;18207;32.078;34.818;2023-05-02T10:03:48;101151.31;;;29.17;39.34
23619;BME280;18207;32.078;34.818;2023-05-02T10:06:19;101156.16;;;29.16;39.52
23619;BME280;18207;32.078;34.818;2023-05-02T10:08:51;101152.13;;;29.17;39.33
23619;BME280;18207;32.078;34.818;2023-05-02T10:11:21;101153.69;;;29.15;39.79
23619;BME280;18207;32.078;34.818;2023-05-02T10:13:53;101153.69;;;29.15;39.38
23619;BME280;18207;32.078;34.818;2023-05-02T10:16:28;101151.69;;;29.15;39.41
23619;BME280;18207;32.078;34.818;2023-05-02T10:19:08;101146.41;;;29.14;39.45
23619;BME280;18207;32.078;34.818;2023-05-02T10:21:42;101150.06;;;29.14;39.74
23619;BME280;18207;32.078;34.818;2023-05-02T10:24:15;101144.00;;;29.16;39.42
23619;BME280;18207;32.078;34.818;2023-05-02T10:26:46;101142.81;;;29.17;39.50
23619;BME280;18207;32.078;34.818;2023-05-02T10:29:17;101133.13;;;29.18;39.62
23619;BME280;18207;32.078;34.818;2023-05-02T10:31:49;101137.19;;;29.20;39.36
23619;BME280;18207;32.078;34.818;2023-05-02T10:34:20;101136.00;;;29.21;39.21
23619;BME280;18207;32.078;34.818;2023-05-02T10:36:51;101126.31;;;29.22;39.61
23619;BME280;18207;32.078;34.818;2023-05-02T10:39:23;101134.41;;;29.24;39.68
23619;BME280;18207;32.078;34.818;2023-05-02T10:41:58;101136.88;;;29.25;39.58
23619;BME280;18207;32.078;34.818;2023-05-02T10:44:33;101140.50;;;29.26;39.41
23619;BME280;18207;32.078;34.818;2023-05-02T10:47:18;101130.81;;;29.27;39.49
23619;BME280;18207;32.078;34.818;2023-05-02T10:49:50;101138.50;;;29.26;39.21
23619;BME280;18207;32.078;34.818;2023-05-02T10:52:29;101135.28;;;29.28;39.35
23619;BME280;18207;32.078;34.818;2023-05-02T10:55:18;101126.78;;;29.28;39.46
23619;BME280;18207;32.078;34.818;2023-05-02T10:58:19;101136.88;;;29.25;39.26
23619;BME280;18207;32.078;34.818;2023-05-02T11:00:50;101127.94;;;29.23;39.22
23619;BME280;18207;32.078;34.818;2023-05-02T11:03:55;101138.06;;;29.24;38.99
23619;BME280;18207;32.078;34.818;2023-05-02T11:06:27;101119.44;;;29.23;39.30
23619;BME280;18207;32.078;34.818;2023-05-02T11:09:33;101136.88;;;29.25;39.38
23619;BME280;18207;32.078;34.818;2023-05-02T11:12:06;101128.38;;;29.25;39.31
23619;BME280;18207;32.078;34.818;2023-05-02T11:14:47;101132.44;;;29.28;39.09
23619;BME280;18207;32.078;34.818;2023-05-02T11:17:17;101120.31;;;29.27;39.52
23619;BME280;18207;32.078;34.818;2023-05-02T11:20:27;101120.31;;;29.27;39.20
23619;BME280;18207;32.078;34.818;2023-05-02T11:23:19;101114.66;;;29.27;39.39
23619;BME280;18207;32.078;34.818;2023-05-02T11:25:55;101129.16;;;29.26;39.20
23619;BME280;18207;32.078;34.818;2023-05-02T11:28:43;101123.50;;;29.26;39.07
23619;BME280;18207;32.078;34.818;2023-05-02T11:32:03;101125.09;;;29.23;38.90
23619;BME280;18207;32.078;34.818;2023-05-02T11:34:43;101116.59;;;29.23;39.20
23619;BME280;18207;32.078;34.818;2023-05-02T11:37:14;101126.31;;;29.22;38.76
23619;BME280;18207;32.078;34.818;2023-05-02T11:39:44;101122.66;;;29.22;39.33
23619;BME280;18207;32.078;34.818;2023-05-02T11:42:38;101119.84;;;29.22;39.12
23619;BME280;18207;32.078;34.818;2023-05-02T11:45:12;101104.03;;;29.21;39.05
23619;BME280;18207;32.078;34.818;2023-05-02T11:47:42;101097.56;;;29.20;39.32
23619;BME280;18207;32.078;34.818;2023-05-02T11:50:14;101104.03;;;29.21;38.80
23619;BME280;18207;32.078;34.818;2023-05-02T11:52:45;101099.59;;;29.20;39.19
23619;BME280;18207;32.078;34.818;2023-05-02T11:55:15;101098.75;;;29.19;38.88
23619;BME280;18207;32.078;34.818;2023-05-02T11:57:46;101092.72;;;29.21;38.96
23619;BME280;18207;32.078;34.818;2023-05-02T12:00:26;101096.34;;;29.21;38.99
23619;BME280;18207;32.078;34.818;2023-05-02T12:02:57;101096.34;;;29.21;38.88
23619;BME280;18207;32.078;34.818;2023-05-02T12:05:28;101095.56;;;29.21;39.29
23619;BME280;18207;32.078;34.818;2023-05-02T12:07:59;101102.00;;;29.21;39.07
23619;BME280;18207;32.078;34.818;2023-05-02T12:10:36;101093.53;;;29.21;38.98
23619;BME280;18207;32.078;34.818;2023-05-02T12:13:08;101094.72;;;29.20;38.89
23619;BME280;18207;32.078;34.818;2023-05-02T12:15:40;101088.25;;;29.20;39.19
23619;BME280;18207;32.078;34.818;2023-05-02T12:18:11;101095.91;;;29.19;39.06
23619;BME280;18207;32.078;34.818;2023-05-02T12:20:43;101100.78;;;29.19;38.77
23619;BME280;18207;32.078;34.818;2023-05-02T12:23:14;101090.66;;;29.18;38.85
23619;BME280;18207;32.078;34.818;2023-05-02T12:25:44;101095.13;;;29.19;38.60
23619;BME280;18207;32.078;34.818;2023-05-02T12:28:16;101095.13;;;29.19;38.94
23619;BME280;18207;32.078;34.818;2023-05-02T12:30:50;101091.44;;;29.18;38.69
23619;BME280;18207;32.078;34.818;2023-05-02T12:33:20;101091.84;;;29.17;38.96
23619;BME280;18207;32.078;34.818;2023-05-02T12:35:50;101094.69;;;29.17;39.00
23619;BME280;18207;32.078;34.818;2023-05-02T12:38:20;101099.53;;;29.16;38.83
23619;BME280;18207;32.078;34.818;2023-05-02T12:40:54;101104.38;;;29.16;38.33
23619;BME280;18207;32.078;34.818;2023-05-02T12:43:25;101102.75;;;29.15;38.66
23619;BME280;18207;32.078;34.818;2023-05-02T12:46:12;101100.75;;;29.15;38.53
23619;BME280;18207;32.078;34.818;2023-05-02T12:48:42;101105.13;;;29.13;38.95
23619;BME280;18207;32.078;34.818;2023-05-02T12:51:22;101107.16;;;29.12;38.39
23619;BME280;18207;32.078;34.818;2023-05-02T12:53:53;101105.09;;;29.09;38.76
23619;BME280;18207;32.078;34.818;2023-05-02T12:56:23;101103.47;;;29.08;38.40
23619;BME280;18207;32.078;34.818;2023-05-02T12:58:54;101112.75;;;29.05;38.49
23619;BME280;18207;32.078;34.818;2023-05-02T13:01:31;101111.91;;;29.05;38.59
23619;BME280;18207;32.078;34.818;2023-05-02T13:04:03;101112.31;;;29.03;38.94
23619;BME280;18207;32.078;34.818;2023-05-02T13:06:33;101113.91;;;29.01;38.81
23619;BME280;18207;32.078;34.818;2023-05-02T13:09:05;101107.41;;;29.00;38.64
23619;BME280;18207;32.078;34.818;2023-05-02T13:11:35;101104.56;;;29.00;38.58